sensor_id;sensor_type;location;lat;lon;timestamp;pressure;altitude;pressure_sealevel;temperature;humidity
59240;BME280;45010;53.640;10.578;2023-04-21T00:00:46;101508.50;;;25.63;31.62
59240;BME280;45010;53.640;10.578;2023-04-21T00:03:46;101511.59;;;25.60;31.65
59240;BME280;45010;53.640;10.578;2023-04-21T00:06:47;101505.69;;;25.58;31.90
59240;BME280;45010;53.640;10.578;2023-04-21T00:09:47;101504.03;;;25.57;32.00
59240;BME280;45010;53.640;10.578;2023-04-21T00:12:47;101497.69;;;25.51;31.62
59240;BME280;45010;53.640;10.578;2023-04-21T00:15:48;101492.16;;;25.46;31.68
59240;BME280;45010;53.640;10.578;2023-04-21T00:18:48;101494.22;;;25.51;31.80
59240;BME280;45010;53.640;10.578;2023-04-21T00:21:49;101501.59;;;25.49;31.73
59240;BME280;45010;53.640;10.578;2023-04-21T00:24:49;101499.38;;;25.46;31.75
59240;BME280;45010;53.640;10.578;2023-04-21T00:27:50;101493.41;;;25.44;31.77
59240;BME280;45010;53.640;10.578;2023-04-21T00:30:50;101491.78;;;25.43;31.79
59240;BME280;45010;53.640;10.578;2023-04-21T00:33:53;101493.88;;;25.41;31.81
59240;BME280;45010;53.640;10.578;2023-04-21T00:36:54;101483.63;;;25.37;31.65
59240;BME280;45010;53.640;10.578;2023-04-21T00:39:55;101487.31;;;25.36;31.79
59240;BME280;45010;53.640;10.578;2023-04-21T00:42:55;101489.41;;;25.34;31.79
59240;BME280;45010;53.640;10.578;2023-04-21T00:45:56;101484.47;;;25.31;31.72
59240;BME280;45010;53.640;10.578;2023-04-21T00:48:57;101485.53;;;25.30;31.77
59240;BME280;45010;53.640;10.578;2023-04-21T00:51:57;101482.25;;;25.28;31.92
59240;BME280;45010;53.640;10.578;2023-04-21T00:54:58;101477.16;;;25.20;31.86
59240;BME280;45010;53.640;10.578;2023-04-21T00:57:59;101474.75;;;25.18;31.81
59240;BME280;45010;53.640;10.578;2023-04-21T01:01:01;101481.25;;;25.22;31.72
59240;BME280;45010;53.640;10.578;2023-04-21T01:04:03;101467.16;;;25.15;31.87
59240;BME280;45010;53.640;10.578;2023-04-21T01:07:04;101471.91;;;25.13;31.88
59240;BME280;45010;53.640;10.578;2023-04-21T01:10:06;101467.81;;;25.10;31.86
59240;BME280;45010;53.640;10.578;2023-04-21T01:13:06;101476.00;;;25.16;31.77
59240;BME280;45010;53.640;10.578;2023-04-21T01:16:07;101464.56;;;25.08;31.81
59240;BME280;45010;53.640;10.578;2023-04-21T01:19:07;101473.16;;;25.10;31.89
59240;BME280;45010;53.640;10.578;2023-04-21T01:22:08;101464.56;;;25.08;31.97
59240;BME280;45010;53.640;10.578;2023-04-21T01:25:11;101475.22;;;25.08;31.97
59240;BME280;45010;53.640;10.578;2023-04-21T01:28:12;101471.94;;;25.06;31.92
59240;BME280;45010;53.640;10.578;2023-04-21T01:31:12;101466.81;;;25.05;32.05
59240;BME280;45010;53.640;10.578;2023-04-21T01:34:13;101470.75;;;25.02;32.21
59240;BME280;45010;53.640;10.578;2023-04-21T01:37:17;101469.91;;;25.02;31.99
59240;BME280;45010;53.640;10.578;2023-04-21T01:40:17;101469.09;;;25.01;32.03
59240;BME280;45010;53.640;10.578;2023-04-21T01:43:21;101451.50;;;24.93;32.03
59240;BME280;45010;53.640;10.578;2023-04-21T01:46:21;101449.06;;;24.92;31.98
59240;BME280;45010;53.640;10.578;2023-04-21T01:49:22;101453.16;;;24.94;32.06
59240;BME280;45010;53.640;10.578;2023-04-21T01:52:22;101456.03;;;24.93;32.05
59240;BME280;45010;53.640;10.578;2023-04-21T01:55:22;101440.88;;;24.87;32.07
59240;BME280;45010;53.640;10.578;2023-04-21T01:58:23;101454.59;;;24.90;32.35
59240;BME280;45010;53.640;10.578;2023-04-21T02:01:23;101459.09;;;24.90;32.07
59240;BME280;45010;53.640;10.578;2023-04-21T02:04:23;101461.19;;;24.88;32.01
59240;BME280;45010;53.640;10.578;2023-04-21T02:07:24;101456.06;;;24.86;32.25
59240;BME280;45010;53.640;10.578;2023-04-21T02:10:24;101456.28;;;24.84;32.07
59240;BME280;45010;53.640;10.578;2023-04-21T02:13:25;101453.63;;;24.84;32.18
59240;BME280;45010;53.640;10.578;2023-04-21T02:16:26;101449.53;;;24.82;32.17
59240;BME280;45010;53.640;10.578;2023-04-21T02:19:26;101452.38;;;24.80;32.05
59240;BME280;45010;53.640;10.578;2023-04-21T02:22:26;101442.75;;;24.79;31.99
59240;BME280;45010;53.640;10.578;2023-04-21T02:25:27;101447.47;;;24.77;32.11
59240;BME280;45010;53.640;10.578;2023-04-21T02:28:28;101442.13;;;24.77;32.14
59240;BME280;45010;53.640;10.578;2023-04-21T02:31:30;101437.81;;;24.76;32.32
59240;BME280;45010;53.640;10.578;2023-04-21T02:34:31;101433.53;;;24.75;32.19
59240;BME280;45010;53.640;10.578;2023-04-21T02:37:31;101439.31;;;24.72;32.14
59240;BME280;45010;53.640;10.578;2023-04-21T02:40:31;101433.97;;;24.72;32.39
59240;BME280;45010;53.640;10.578;2023-04-21T02:43:32;101436.00;;;24.70;32.26
59240;BME280;45010;53.640;10.578;2023-04-21T02:46:32;101434.38;;;24.69;32.23
59240;BME280;45010;53.640;10.578;2023-04-21T02:49:33;101434.59;;;24.67;32.18
59240;BME280;45010;53.640;10.578;2023-04-21T02:52:35;101421.31;;;24.61;32.32
59240;BME280;45010;53.640;10.578;2023-04-21T02:55:36;101444.66;;;24.65;31.92
59240;BME280;45010;53.640;10.578;2023-04-21T02:58:37;101426.03;;;24.58;32.13
59240;BME280;45010;53.640;10.578;2023-04-21T03:01:37;101429.91;;;24.63;32.29
59240;BME280;45010;53.640;10.578;2023-04-21T03:04:37;101405.81;;;24.44;32.31
59240;BME280;45010;53.640;10.578;2023-04-21T03:07:38;101430.34;;;24.60;32.20
59240;BME280;45010;53.640;10.578;2023-04-21T03:10:38;101425.00;;;24.60;32.17
59240;BME280;45010;53.640;10.578;2023-04-21T03:13:39;101427.06;;;24.57;32.33
59240;BME280;45010;53.640;10.578;2023-04-21T03:16:39;101430.75;;;24.56;32.25
59240;BME280;45010;53.640;10.578;2023-04-21T03:19:39;101428.09;;;24.56;32.21
59240;BME280;45010;53.640;10.578;2023-04-21T03:22:40;101418.47;;;24.55;31.96
59240;BME280;45010;53.640;10.578;2023-04-21T03:25:40;101427.50;;;24.54;32.21
59240;BME280;45010;53.640;10.578;2023-04-21T03:28:40;101429.53;;;24.52;32.29
59240;BME280;45010;53.640;10.578;2023-04-21T03:31:41;101433.25;;;24.51;32.18
59240;BME280;45010;53.640;10.578;2023-04-21T03:34:41;101420.94;;;24.50;32.15
59240;BME280;45010;53.640;10.578;2023-04-21T03:37:41;101422.00;;;24.49;32.02
59240;BME280;45010;53.640;10.578;2023-04-21T03:40:42;101427.31;;;24.49;32.42
59240;BME280;45010;53.640;10.578;2023-04-21T03:43:42;101415.88;;;24.42;32.36
59240;BME280;45010;53.640;10.578;2023-04-21T03:46:42;101416.03;;;24.47;32.20
59240;BME280;45010;53.640;10.578;2023-04-21T03:49:43;101406.84;;;24.43;32.55
59240;BME280;45010;53.640;10.578;2023-04-21T03:52:43;101419.72;;;24.46;32.47
59240;BME280;45010;53.640;10.578;2023-04-21T03:55:43;101416.28;;;24.45;32.45
59240;BME280;45010;53.640;10.578;2023-04-21T03:58:47;101384.78;;;24.22;32.35
59240;BME280;45010;53.640;10.578;2023-04-21T04:01:48;101417.31;;;24.38;32.26
59240;BME280;45010;53.640;10.578;2023-04-21T04:04:48;101418.53;;;24.42;32.32
59240;BME280;45010;53.640;10.578;2023-04-21T04:07:49;101409.50;;;24.43;32.48
59240;BME280;45010;53.640;10.578;2023-04-21T04:10:49;101407.88;;;24.42;32.40
59240;BME280;45010;53.640;10.578;2023-04-21T04:13:50;101412.38;;;24.41;32.27
59240;BME280;45010;53.640;10.578;2023-04-21T04:16:50;101408.88;;;24.41;32.49
59240;BME280;45010;53.640;10.578;2023-04-21T04:19:50;101411.56;;;24.41;32.73
59240;BME280;45010;53.640;10.578;2023-04-21T04:22:51;101409.91;;;24.40;32.56
59240;BME280;45010;53.640;10.578;2023-04-21T04:25:51;101408.28;;;24.39;32.49
59240;BME280;45010;53.640;10.578;2023-04-21T04:28:51;101408.28;;;24.39;32.60
59240;BME280;45010;53.640;10.578;2023-04-21T04:31:52;101399.50;;;24.31;32.37
59240;BME280;45010;53.640;10.578;2023-04-21T04:34:53;101399.69;;;24.37;32.44
59240;BME280;45010;53.640;10.578;2023-04-21T04:37:54;101403.41;;;24.36;32.61
59240;BME280;45010;53.640;10.578;2023-04-21T04:40:56;101402.78;;;24.34;32.48
59240;BME280;45010;53.640;10.578;2023-04-21T04:43:57;101380.47;;;24.28;32.28
59240;BME280;45010;53.640;10.578;2023-04-21T04:46:58;101403.81;;;24.33;32.35
59240;BME280;45010;53.640;10.578;2023-04-21T04:49:59;101405.88;;;24.30;32.44
59240;BME280;45010;53.640;10.578;2023-04-21T04:52:59;101406.69;;;24.31;32.63
59240;BME280;45010;53.640;10.578;2023-04-21T04:55:59;101404.00;;;24.31;32.45
59240;BME280;45010;53.640;10.578;2023-04-21T04:59:00;101395.22;;;24.30;32.60
59240;BME280;45010;53.640;10.578;2023-04-21T05:02:00;101400.56;;;24.30;32.49
59240;BME280;45010;53.640;10.578;2023-04-21T05:05:01;101400.56;;;24.30;32.70
59240;BME280;45010;53.640;10.578;2023-04-21T05:08:01;101403.22;;;24.30;32.66
59240;BME280;45010;53.640;10.578;2023-04-21T05:11:02;101406.09;;;24.29;32.71
59240;BME280;45010;53.640;10.578;2023-04-21T05:14:02;101402.59;;;24.28;32.53
59240;BME280;45010;53.640;10.578;2023-04-21T05:17:02;101407.91;;;24.28;32.53
59240;BME280;45010;53.640;10.578;2023-04-21T05:20:04;101404.47;;;24.28;32.52
59240;BME280;45010;53.640;10.578;2023-04-21T05:23:04;101407.91;;;24.28;32.47
59240;BME280;45010;53.640;10.578;2023-04-21T05:26:05;101420.66;;;24.26;32.45
59240;BME280;45010;53.640;10.578;2023-04-21T05:29:05;101414.28;;;24.27;32.68
59240;BME280;45010;53.640;10.578;2023-04-21T05:32:05;101393.63;;;24.16;32.77
59240;BME280;45010;53.640;10.578;2023-04-21T05:35:06;101415.31;;;24.26;32.60
59240;BME280;45010;53.640;10.578;2023-04-21T05:38:06;101408.38;;;24.25;32.56
59240;BME280;45010;53.640;10.578;2023-04-21T05:41:07;101412.06;;;24.24;32.82
59240;BME280;45010;53.640;10.578;2023-04-21T05:44:07;101408.38;;;24.25;32.70
59240;BME280;45010;53.640;10.578;2023-04-21T05:47:08;101411.03;;;24.25;32.80
59240;BME280;45010;53.640;10.578;2023-04-21T05:50:08;101417.41;;;24.24;32.45
59240;BME280;45010;53.640;10.578;2023-04-21T05:53:09;101417.41;;;24.24;32.54
59240;BME280;45010;53.640;10.578;2023-04-21T05:56:10;101415.72;;;24.23;32.77
59240;BME280;45010;53.640;10.578;2023-04-21T05:59:10;101411.44;;;24.22;32.68
59240;BME280;45010;53.640;10.578;2023-04-21T06:02:11;101403.50;;;24.15;32.85
59240;BME280;45010;53.640;10.578;2023-04-21T06:05:11;101410.41;;;24.23;32.61
59240;BME280;45010;53.640;10.578;2023-04-21T06:08:12;101407.59;;;24.18;32.60
59240;BME280;45010;53.640;10.578;2023-04-21T06:11:12;101412.06;;;24.24;32.96
59240;BME280;45010;53.640;10.578;2023-04-21T06:14:12;101407.75;;;24.23;32.62
59240;BME280;45010;53.640;10.578;2023-04-21T06:17:16;101394.06;;;24.13;32.79
59240;BME280;45010;53.640;10.578;2023-04-21T06:20:17;101404.06;;;24.24;32.91
59240;BME280;45010;53.640;10.578;2023-04-21T06:23:17;101399.75;;;24.23;32.83
59240;BME280;45010;53.640;10.578;2023-04-21T06:26:18;101405.06;;;24.23;32.87
59240;BME280;45010;53.640;10.578;2023-04-21T06:29:18;101400.56;;;24.24;32.80
59240;BME280;45010;53.640;10.578;2023-04-21T06:32:19;101396.06;;;24.24;32.80
59240;BME280;45010;53.640;10.578;2023-04-21T06:35:19;101401.41;;;24.24;32.98
59240;BME280;45010;53.640;10.578;2023-04-21T06:38:20;101382.16;;;24.15;33.04
59240;BME280;45010;53.640;10.578;2023-04-21T06:41:20;101399.53;;;24.25;32.81
59240;BME280;45010;53.640;10.578;2023-04-21T06:44:21;101401.41;;;24.24;33.12
59240;BME280;45010;53.640;10.578;2023-04-21T06:47:21;101392.38;;;24.25;33.00
59240;BME280;45010;53.640;10.578;2023-04-21T06:50:21;101375.22;;;24.14;33.51
59240;BME280;45010;53.640;10.578;2023-04-21T06:53:22;101402.59;;;24.28;33.79
59240;BME280;45010;53.640;10.578;2023-04-21T06:56:22;101398.91;;;24.29;34.24
59240;BME280;45010;53.640;10.578;2023-04-21T06:59:22;101394.38;;;24.30;34.06
59240;BME280;45010;53.640;10.578;2023-04-21T07:02:23;101394.19;;;24.31;34.18
59240;BME280;45010;53.640;10.578;2023-04-21T07:05:24;101389.44;;;24.34;34.79
59240;BME280;45010;53.640;10.578;2023-04-21T07:08:25;101394.38;;;24.37;34.41
59240;BME280;45010;53.640;10.578;2023-04-21T07:11:25;101380.84;;;24.31;34.45
59240;BME280;45010;53.640;10.578;2023-04-21T07:14:27;101382.84;;;24.43;34.67
59240;BME280;45010;53.640;10.578;2023-04-21T07:17:27;101391.44;;;24.45;34.44
59240;BME280;45010;53.640;10.578;2023-04-21T07:20:29;101384.03;;;24.47;34.00
59240;BME280;45010;53.640;10.578;2023-04-21T07:23:29;101385.69;;;24.48;33.98
59240;BME280;45010;53.640;10.578;2023-04-21T07:26:29;101355.81;;;24.33;34.19
59240;BME280;45010;53.640;10.578;2023-04-21T07:29:30;101387.72;;;24.53;34.02
59240;BME280;45010;53.640;10.578;2023-04-21T07:32:31;101381.13;;;24.55;34.12
59240;BME280;45010;53.640;10.578;2023-04-21T07:35:32;101380.69;;;24.58;34.78
59240;BME280;45010;53.640;10.578;2023-04-21T07:38:32;101387.25;;;24.63;34.43
59240;BME280;45010;53.640;10.578;2023-04-21T07:41:33;101383.53;;;24.64;34.24
59240;BME280;45010;53.640;10.578;2023-04-21T07:44:34;101364.69;;;24.58;34.34
59240;BME280;45010;53.640;10.578;2023-04-21T07:47:34;101369.16;;;24.65;34.34
59240;BME280;45010;53.640;10.578;2023-04-21T07:50:34;101381.00;;;24.76;34.25
59240;BME280;45010;53.640;10.578;2023-04-21T07:53:35;101376.06;;;24.79;34.08
59240;BME280;45010;53.640;10.578;2023-04-21T07:56:35;101371.34;;;24.81;34.00
59240;BME280;45010;53.640;10.578;2023-04-21T07:59:36;101380.75;;;24.84;33.96
59240;BME280;45010;53.640;10.578;2023-04-21T08:02:36;101370.69;;;24.86;33.97
59240;BME280;45010;53.640;10.578;2023-04-21T08:05:36;101373.97;;;24.88;33.87
59240;BME280;45010;53.640;10.578;2023-04-21T08:08:38;101367.38;;;24.91;33.92
59240;BME280;45010;53.640;10.578;2023-04-21T08:11:38;101358.94;;;24.94;33.66
59240;BME280;45010;53.640;10.578;2023-04-21T08:14:39;101350.16;;;24.87;33.80
59240;BME280;45010;53.640;10.578;2023-04-21T08:17:40;101364.44;;;24.99;33.66
59240;BME280;45010;53.640;10.578;2023-04-21T08:20:40;101360.72;;;25.00;33.63
59240;BME280;45010;53.640;10.578;2023-04-21T08:23:40;101359.47;;;25.03;33.53
59240;BME280;45010;53.640;10.578;2023-04-21T08:26:41;101353.91;;;25.04;33.55
59240;BME280;45010;53.640;10.578;2023-04-21T08:29:41;101358.22;;;25.05;33.52
59240;BME280;45010;53.640;10.578;2023-04-21T08:32:41;101356.13;;;25.07;33.56
59240;BME280;45010;53.640;10.578;2023-04-21T08:35:42;101330.19;;;24.96;33.52
59240;BME280;45010;53.640;10.578;2023-04-21T08:38:42;101353.63;;;25.12;33.01
59240;BME280;45010;53.640;10.578;2023-04-21T08:41:43;101344.59;;;25.14;32.57
59240;BME280;45010;53.640;10.578;2023-04-21T08:44:44;101345.47;;;25.07;32.48
59240;BME280;45010;53.640;10.578;2023-04-21T08:47:45;101350.97;;;25.12;32.29
59240;BME280;45010;53.640;10.578;2023-04-21T08:50:48;101333.78;;;25.08;32.53
59240;BME280;45010;53.640;10.578;2023-04-21T08:53:48;101321.75;;;24.99;32.42
59240;BME280;45010;53.640;10.578;2023-04-21T08:56:49;101351.13;;;25.18;32.64
59240;BME280;45010;53.640;10.578;2023-04-21T08:59:50;101335.09;;;25.18;32.68
59240;BME280;45010;53.640;10.578;2023-04-21T09:02:55;101345.38;;;25.21;32.25
59240;BME280;45010;53.640;10.578;2023-04-21T09:06:14;101346.16;;;25.21;32.29
59240;BME280;45010;53.640;10.578;2023-04-21T09:09:14;101351.88;;;25.25;32.67
59240;BME280;45010;53.640;10.578;2023-04-21T09:12:14;101348.19;;;25.26;32.62
59240;BME280;45010;53.640;10.578;2023-04-21T09:15:15;101347.94;;;25.28;32.50
59240;BME280;45010;53.640;10.578;2023-04-21T09:18:20;101344.03;;;25.30;32.42
59240;BME280;45010;53.640;10.578;2023-04-21T09:21:26;101332.19;;;25.26;32.52
59240;BME280;45010;53.640;10.578;2023-04-21T09:24:27;101338.25;;;25.33;32.50
59240;BME280;45010;53.640;10.578;2023-04-21T09:27:27;101336.16;;;25.35;32.33
59240;BME280;45010;53.640;10.578;2023-04-21T09:30:27;101333.72;;;25.34;32.11
59240;BME280;45010;53.640;10.578;2023-04-21T09:33:32;101331.72;;;25.29;31.99
59240;BME280;45010;53.640;10.578;2023-04-21T09:36:33;101337.78;;;25.36;32.17
59240;BME280;45010;53.640;10.578;2023-04-21T09:39:34;101332.47;;;25.36;31.87
59240;BME280;45010;53.640;10.578;2023-04-21T09:42:34;101335.75;;;25.38;32.22
59240;BME280;45010;53.640;10.578;2023-04-21T09:45:35;101303.81;;;25.25;32.32
59240;BME280;45010;53.640;10.578;2023-04-21T09:48:36;101324.59;;;25.42;32.55
59240;BME280;45010;53.640;10.578;2023-04-21T09:51:42;101323.41;;;25.37;32.52
59240;BME280;45010;53.640;10.578;2023-04-21T09:54:49;101322.53;;;25.44;32.46
59240;BME280;45010;53.640;10.578;2023-04-21T09:57:51;101312.66;;;25.44;32.09
59240;BME280;45010;53.640;10.578;2023-04-21T10:00:56;101293.03;;;25.38;31.92
59240;BME280;45010;53.640;10.578;2023-04-21T10:03:56;101288.13;;;25.35;32.37
59240;BME280;45010;53.640;10.578;2023-04-21T10:07:00;101281.56;;;25.31;32.35
59240;BME280;45010;53.640;10.578;2023-04-21T10:10:01;101296.66;;;25.44;32.00
59240;BME280;45010;53.640;10.578;2023-04-21T10:13:02;101297.47;;;25.45;31.92
59240;BME280;45010;53.640;10.578;2023-04-21T10:16:07;101284.78;;;25.40;32.44
59240;BME280;45010;53.640;10.578;2023-04-21T10:19:26;101290.03;;;25.47;32.86
59240;BME280;45010;53.640;10.578;2023-04-21T10:22:30;101284.69;;;25.47;32.41
59240;BME280;45010;53.640;10.578;2023-04-21T10:25:31;101284.69;;;25.47;32.65
59240;BME280;45010;53.640;10.578;2023-04-21T10:29:08;101281.00;;;25.48;32.28
59240;BME280;45010;53.640;10.578;2023-04-21T10:32:08;101275.66;;;25.48;32.22
59240;BME280;45010;53.640;10.578;2023-04-21T10:35:13;101270.31;;;25.48;32.07
59240;BME280;45010;53.640;10.578;2023-04-21T10:38:39;101267.06;;;25.46;31.83
59240;BME280;45010;53.640;10.578;2023-04-21T10:41:42;101264.16;;;25.47;32.17
59240;BME280;45010;53.640;10.578;2023-04-21T10:44:44;101255.75;;;25.44;32.13
59240;BME280;45010;53.640;10.578;2023-04-21T10:47:51;101257.31;;;25.51;32.03
59240;BME280;45010;53.640;10.578;2023-04-21T10:50:52;101260.00;;;25.51;31.87
59240;BME280;45010;53.640;10.578;2023-04-21T10:53:52;101247.47;;;25.52;31.93
59240;BME280;45010;53.640;10.578;2023-04-21T10:56:53;101234.09;;;25.52;31.95
59240;BME280;45010;53.640;10.578;2023-04-21T10:59:54;101241.09;;;25.53;31.81
59240;BME280;45010;53.640;10.578;2023-04-21T11:02:55;101235.75;;;25.53;31.49
59240;BME280;45010;53.640;10.578;2023-04-21T11:05:55;101227.34;;;25.49;32.24
59240;BME280;45010;53.640;10.578;2023-04-21T11:08:56;101240.63;;;25.56;32.01
59240;BME280;45010;53.640;10.578;2023-04-21T11:11:57;101236.94;;;25.57;31.97
59240;BME280;45010;53.640;10.578;2023-04-21T11:14:58;101232.41;;;25.58;31.77
59240;BME280;45010;53.640;10.578;2023-04-21T11:17:58;101228.94;;;25.57;31.59
59240;BME280;45010;53.640;10.578;2023-04-21T11:21:06;101223.59;;;25.57;31.54
59240;BME280;45010;53.640;10.578;2023-04-21T11:24:07;101198.78;;;25.50;31.37
59240;BME280;45010;53.640;10.578;2023-04-21T11:27:08;101217.22;;;25.58;31.20
59240;BME280;45010;53.640;10.578;2023-04-21T11:30:09;101207.56;;;25.57;31.37
59240;BME280;45010;53.640;10.578;2023-04-21T11:33:10;101212.66;;;25.59;31.67
59240;BME280;45010;53.640;10.578;2023-04-21T11:36:10;101202.81;;;25.59;31.53
59240;BME280;45010;53.640;10.578;2023-04-21T11:39:15;101180.25;;;25.55;31.53
59240;BME280;45010;53.640;10.578;2023-04-21T11:42:20;101186.22;;;25.57;31.40
59240;BME280;45010;53.640;10.578;2023-04-21T11:45:21;101191.69;;;25.62;31.10
59240;BME280;45010;53.640;10.578;2023-04-21T11:48:22;101181.00;;;25.62;31.27
59240;BME280;45010;53.640;10.578;2023-04-21T11:51:22;101182.84;;;25.62;31.18
59240;BME280;45010;53.640;10.578;2023-04-21T11:54:22;101174.84;;;25.62;30.81
59240;BME280;45010;53.640;10.578;2023-04-21T11:57:24;101183.69;;;25.62;30.77
59240;BME280;45010;53.640;10.578;2023-04-21T12:00:28;101179.72;;;25.65;31.36
59240;BME280;45010;53.640;10.578;2023-04-21T12:03:31;101171.47;;;25.67;31.26
59240;BME280;45010;53.640;10.578;2023-04-21T12:06:31;101164.06;;;25.69;31.38
59240;BME280;45010;53.640;10.578;2023-04-21T12:09:35;101133.06;;;25.49;31.04
59240;BME280;45010;53.640;10.578;2023-04-21T12:12:39;101134.69;;;25.50;30.81
59240;BME280;45010;53.640;10.578;2023-04-21T12:15:43;101162.41;;;25.68;30.72
59240;BME280;45010;53.640;10.578;2023-04-21T12:18:43;101154.88;;;25.64;30.83
59240;BME280;45010;53.640;10.578;2023-04-21T12:21:44;101151.28;;;25.71;30.93
59240;BME280;45010;53.640;10.578;2023-04-21T12:24:44;101139.91;;;25.63;30.73
59240;BME280;45010;53.640;10.578;2023-04-21T12:27:49;101124.78;;;25.57;30.57
59240;BME280;45010;53.640;10.578;2023-04-21T12:30:50;101156.06;;;25.69;30.78
59240;BME280;45010;53.640;10.578;2023-04-21T12:33:50;101142.69;;;25.69;30.39
59240;BME280;45010;53.640;10.578;2023-04-21T12:36:50;101140.03;;;25.69;30.58
59240;BME280;45010;53.640;10.578;2023-04-21T12:39:50;101135.69;;;25.68;30.40
59240;BME280;45010;53.640;10.578;2023-04-21T12:42:51;101119.78;;;25.61;30.31
59240;BME280;45010;53.640;10.578;2023-04-21T12:45:51;101130.34;;;25.68;30.09
59240;BME280;45010;53.640;10.578;2023-04-21T12:48:52;101139.44;;;25.67;30.32
59240;BME280;45010;53.640;10.578;2023-04-21T12:51:52;101132.47;;;25.65;30.04
59240;BME280;45010;53.640;10.578;2023-04-21T12:54:52;101121.78;;;25.65;30.02
59240;BME280;45010;53.640;10.578;2023-04-21T12:57:53;101116.44;;;25.65;29.99
59240;BME280;45010;53.640;10.578;2023-04-21T13:00:53;101118.28;;;25.65;29.94
59240;BME280;45010;53.640;10.578;2023-04-21T13:03:54;101116.44;;;25.65;30.05
59240;BME280;45010;53.640;10.578;2023-04-21T13:06:54;101107.84;;;25.63;29.99
59240;BME280;45010;53.640;10.578;2023-04-21T13:09:55;101107.84;;;25.63;29.66
59240;BME280;45010;53.640;10.578;2023-04-21T13:12:55;101105.41;;;25.62;30.01
59240;BME280;45010;53.640;10.578;2023-04-21T13:15:55;101100.88;;;25.62;29.64
59240;BME280;45010;53.640;10.578;2023-04-21T13:18:56;101103.53;;;25.62;29.84
59240;BME280;45010;53.640;10.578;2023-04-21T13:21:56;101103.78;;;25.61;29.86
59240;BME280;45010;53.640;10.578;2023-04-21T13:24:56;101092.25;;;25.60;29.77
59240;BME280;45010;53.640;10.578;2023-04-21T13:27:57;101093.09;;;25.61;29.62
59240;BME280;45010;53.640;10.578;2023-04-21T13:30:57;101077.16;;;25.54;29.52
59240;BME280;45010;53.640;10.578;2023-04-21T13:33:59;101084.84;;;25.62;30.44
59240;BME280;45010;53.640;10.578;2023-04-21T13:37:00;101083.56;;;25.65;30.22
59240;BME280;45010;53.640;10.578;2023-04-21T13:40:01;101077.41;;;25.64;30.32
59240;BME280;45010;53.640;10.578;2023-04-21T13:43:01;101068.34;;;25.65;30.04
59240;BME280;45010;53.640;10.578;2023-04-21T13:46:02;101036.94;;;25.49;30.07
59240;BME280;45010;53.640;10.578;2023-04-21T13:49:02;101054.41;;;25.63;29.96
59240;BME280;45010;53.640;10.578;2023-04-21T13:52:02;101064.28;;;25.63;29.77
59240;BME280;45010;53.640;10.578;2023-04-21T13:55:03;101055.47;;;25.62;29.66
59240;BME280;45010;53.640;10.578;2023-04-21T13:58:04;101045.81;;;25.61;29.48
59240;BME280;45010;53.640;10.578;2023-04-21T14:01:05;101034.31;;;25.61;29.22
59240;BME280;45010;53.640;10.578;2023-04-21T14:04:06;101017.94;;;25.57;29.77
59240;BME280;45010;53.640;10.578;2023-04-21T14:07:06;101022.38;;;25.63;29.79
59240;BME280;45010;53.640;10.578;2023-04-21T14:10:07;101029.34;;;25.64;29.86
59240;BME280;45010;53.640;10.578;2023-04-21T14:13:07;101018.66;;;25.64;29.78
59240;BME280;45010;53.640;10.578;2023-04-21T14:16:08;101020.28;;;25.65;29.86
59240;BME280;45010;53.640;10.578;2023-04-21T14:19:08;101021.91;;;25.67;30.21
59240;BME280;45010;53.640;10.578;2023-04-21T14:22:09;101001.94;;;25.57;30.16
59240;BME280;45010;53.640;10.578;2023-04-21T14:25:09;101011.34;;;25.72;30.04
59240;BME280;45010;53.640;10.578;2023-04-21T14:28:10;101011.34;;;25.72;30.20
59240;BME280;45010;53.640;10.578;2023-04-21T14:31:10;100997.97;;;25.72;29.73
59240;BME280;45010;53.640;10.578;2023-04-21T14:34:10;100991.00;;;25.71;29.90
59240;BME280;45010;53.640;10.578;2023-04-21T14:37:11;100995.88;;;25.74;29.92
59240;BME280;45010;53.640;10.578;2023-04-21T14:40:11;100986.25;;;25.73;29.79
59240;BME280;45010;53.640;10.578;2023-04-21T14:43:12;100981.94;;;25.72;29.42
59240;BME280;45010;53.640;10.578;2023-04-21T14:46:13;100985.44;;;25.72;29.35
59240;BME280;45010;53.640;10.578;2023-04-21T14:49:13;100981.94;;;25.72;29.18
59240;BME280;45010;53.640;10.578;2023-04-21T14:52:14;100979.28;;;25.72;29.13
59240;BME280;45010;53.640;10.578;2023-04-21T14:55:15;100973.94;;;25.72;29.19
59240;BME280;45010;53.640;10.578;2023-04-21T14:58:15;100938.72;;;25.51;29.06
59240;BME280;45010;53.640;10.578;2023-04-21T15:01:16;100975.78;;;25.71;29.22
59240;BME280;45010;53.640;10.578;2023-04-21T15:04:16;100930.47;;;25.52;29.51
59240;BME280;45010;53.640;10.578;2023-04-21T15:07:17;100956.84;;;25.73;29.41
59240;BME280;45010;53.640;10.578;2023-04-21T15:10:17;100960.56;;;25.72;28.90
59240;BME280;45010;53.640;10.578;2023-04-21T15:13:18;100953.63;;;25.71;29.29
59240;BME280;45010;53.640;10.578;2023-04-21T15:16:18;100947.44;;;25.70;28.77
59240;BME280;45010;53.640;10.578;2023-04-21T15:19:18;100948.28;;;25.71;29.26
59240;BME280;45010;53.640;10.578;2023-04-21T15:22:19;100941.88;;;25.72;29.03
59240;BME280;45010;53.640;10.578;2023-04-21T15:25:19;100944.78;;;25.70;29.34
59240;BME280;45010;53.640;10.578;2023-04-21T15:28:19;100934.91;;;25.71;29.02
59240;BME280;45010;53.640;10.578;2023-04-21T15:31:20;100935.97;;;25.70;29.03
59240;BME280;45010;53.640;10.578;2023-04-21T15:34:20;100931.41;;;25.70;29.02